createdAt,value
2018-09-27T00:00:47.958Z,9.20
2018-09-27T00:03:18.681Z,9.20
2018-09-27T00:05:49.348Z,9.10
2018-09-27T00:08:20.040Z,9.10
2018-09-27T00:10:50.713Z,9.10
2018-09-27T00:13:21.479Z,9.10
2018-09-27T00:15:52.147Z,9.10
2018-09-27T00:18:22.833Z,9.10
2018-09-27T00:20:53.504Z,9.10
2018-09-27T00:23:24.200Z,9.10
2018-09-27T00:25:54.856Z,9.10
2018-09-27T00:28:25.667Z,9.10
2018-09-27T00:30:56.381Z,9.00
2018-09-27T00:33:27.136Z,9.00
2018-09-27T00:35:57.793Z,9.00
2018-09-27T00:38:28.493Z,8.90
2018-09-27T00:40:59.147Z,8.90
2018-09-27T00:43:29.864Z,8.90
2018-09-27T00:46:00.538Z,8.90
2018-09-27T00:48:31.233Z,8.90
2018-09-27T00:51:01.897Z,8.90
2018-09-27T00:53:32.641Z,8.80
2018-09-27T00:56:03.716Z,8.80
2018-09-27T00:58:34.409Z,8.80
2018-09-27T01:01:05.100Z,8.80
2018-09-27T01:03:35.789Z,8.80
2018-09-27T01:06:06.856Z,8.70
2018-09-27T01:08:37.639Z,8.70
2018-09-27T01:11:08.312Z,8.70
2018-09-27T01:13:39.253Z,8.70
2018-09-27T01:16:16.634Z,8.70
2018-09-27T01:18:47.319Z,8.70
2018-09-27T01:21:17.978Z,8.70
2018-09-27T01:23:48.669Z,8.70
2018-09-27T01:26:19.368Z,8.70
2018-09-27T01:28:50.109Z,8.70
2018-09-27T01:31:20.917Z,8.70
2018-09-27T01:33:51.628Z,8.70
2018-09-27T01:36:22.320Z,8.70
2018-09-27T01:38:53.188Z,8.60
2018-09-27T01:41:23.877Z,8.60
2018-09-27T01:43:54.556Z,8.60
2018-09-27T01:46:25.245Z,8.60
2018-09-27T01:48:55.914Z,8.60
2018-09-27T01:51:26.592Z,8.50
2018-09-27T01:53:57.249Z,8.50
2018-09-27T01:56:27.961Z,8.50
2018-09-27T01:58:58.644Z,8.50
2018-09-27T02:01:29.340Z,8.50
2018-09-27T02:04:00.037Z,8.50
2018-09-27T02:06:30.733Z,8.50
2018-09-27T02:09:01.385Z,8.40
2018-09-27T02:11:32.105Z,8.40
2018-09-27T02:14:02.773Z,8.40
2018-09-27T02:16:33.470Z,8.40
2018-09-27T02:19:04.153Z,8.40
2018-09-27T02:21:34.855Z,8.40
2018-09-27T02:24:05.516Z,8.30
2018-09-27T02:26:36.212Z,8.30
2018-09-27T02:29:07.150Z,8.30
2018-09-27T02:31:37.855Z,8.30
2018-09-27T02:34:08.515Z,8.20
2018-09-27T02:36:39.197Z,8.30
2018-09-27T02:39:10.924Z,8.20
2018-09-27T02:41:41.624Z,8.20
2018-09-27T02:44:12.273Z,8.20
2018-09-27T02:46:42.961Z,8.10
2018-09-27T02:49:13.804Z,8.10
2018-09-27T02:51:44.514Z,8.10
2018-09-27T02:54:15.163Z,8.10
2018-09-27T02:56:45.900Z,8.10
2018-09-27T02:59:16.564Z,8.10
2018-09-27T03:01:47.258Z,8.00
2018-09-27T03:04:17.944Z,8.00
2018-09-27T03:06:48.077Z,8.00
2018-09-27T03:09:18.793Z,8.00
2018-09-27T03:11:48.888Z,8.00
2018-09-27T03:14:19.692Z,8.00
2018-09-27T03:16:50.358Z,7.90
2018-09-27T03:19:21.053Z,7.90
2018-09-27T03:21:51.729Z,7.90
2018-09-27T03:24:22.410Z,7.90
2018-09-27T03:26:53.071Z,7.90
2018-09-27T03:29:23.789Z,7.90
2018-09-27T03:31:54.467Z,7.90
2018-09-27T03:34:25.144Z,7.90
2018-09-27T03:36:55.292Z,7.90
2018-09-27T03:39:25.448Z,7.80
2018-09-27T03:41:55.600Z,7.80
2018-09-27T03:44:26.369Z,7.80
2018-09-27T03:46:57.141Z,7.70
2018-09-27T03:49:27.804Z,7.70
2018-09-27T03:51:57.937Z,7.70
2018-09-27T03:54:28.056Z,7.70
2018-09-27T03:56:58.279Z,7.70
2018-09-27T03:59:28.384Z,7.70
2018-09-27T04:01:59.067Z,7.70
2018-09-27T04:04:29.733Z,7.60
2018-09-27T04:06:59.872Z,7.60
2018-09-27T04:09:29.969Z,7.70
2018-09-27T04:12:00.657Z,7.60
2018-09-27T04:14:31.489Z,7.60
2018-09-27T04:17:01.620Z,7.60
2018-09-27T04:19:32.279Z,7.60
2018-09-27T04:22:02.455Z,7.60
2018-09-27T04:24:32.567Z,7.60
2018-09-27T04:27:03.109Z,7.60
2018-09-27T04:29:33.213Z,7.60
2018-09-27T04:32:03.345Z,7.60
2018-09-27T04:34:33.485Z,7.60
2018-09-27T04:37:03.625Z,7.60
2018-09-27T04:39:33.755Z,7.50
2018-09-27T04:42:04.215Z,7.50
2018-09-27T04:44:34.355Z,7.50
2018-09-27T04:47:04.481Z,7.50
2018-09-27T04:49:34.636Z,7.50
2018-09-27T04:52:04.768Z,7.40
2018-09-27T04:54:34.949Z,7.40
2018-09-27T04:57:05.242Z,7.40
2018-09-27T04:59:35.400Z,7.40
2018-09-27T05:02:05.562Z,7.40
2018-09-27T05:04:35.724Z,7.40
2018-09-27T05:07:05.874Z,7.40
2018-09-27T05:09:36.393Z,7.40
2018-09-27T05:12:06.937Z,7.30
2018-09-27T05:14:37.188Z,7.30
2018-09-27T05:17:07.488Z,7.30
2018-09-27T05:19:37.628Z,7.30
2018-09-27T05:22:08.344Z,7.30
2018-09-27T05:24:38.452Z,7.30
2018-09-27T05:27:09.078Z,7.30
2018-09-27T05:29:39.358Z,7.30
2018-09-27T05:32:09.508Z,7.30
2018-09-27T05:34:39.640Z,7.30
2018-09-27T05:37:09.828Z,7.30
2018-09-27T05:39:39.951Z,7.30
2018-09-27T05:42:10.263Z,7.30
2018-09-27T05:44:40.371Z,7.30
2018-09-27T05:47:10.535Z,7.30
2018-09-27T05:49:40.628Z,7.30
2018-09-27T05:52:10.768Z,7.30
2018-09-27T05:54:40.889Z,7.30
2018-09-27T05:57:11.041Z,7.30
2018-09-27T05:59:41.173Z,7.30
2018-09-27T06:02:11.633Z,7.30
2018-09-27T06:04:41.961Z,7.30
2018-09-27T06:07:13.852Z,7.30
2018-09-27T06:09:44.109Z,7.30
2018-09-27T06:12:14.326Z,7.30
2018-09-27T06:14:44.476Z,7.30
2018-09-27T06:17:14.592Z,7.40
2018-09-27T06:19:44.743Z,7.40
2018-09-27T06:22:15.085Z,7.40
2018-09-27T06:24:45.233Z,7.40
2018-09-27T06:27:15.382Z,7.40
2018-09-27T06:29:52.101Z,7.40
2018-09-27T06:32:22.215Z,7.50
2018-09-27T06:34:52.528Z,7.50
2018-09-27T06:37:22.873Z,7.50
2018-09-27T06:39:53.020Z,7.60
2018-09-27T06:42:23.189Z,7.60
2018-09-27T06:44:53.313Z,7.60
2018-09-27T06:47:23.496Z,7.70
2018-09-27T06:49:53.601Z,7.70
2018-09-27T06:52:23.845Z,7.70
2018-09-27T06:54:54.539Z,7.80
2018-09-27T06:57:24.857Z,7.90
2018-09-27T06:59:54.968Z,7.90
2018-09-27T07:02:25.265Z,8.10
2018-09-27T07:04:55.706Z,8.20
2018-09-27T07:07:25.910Z,8.30
2018-09-27T07:09:56.595Z,8.30
2018-09-27T07:12:27.496Z,8.40
2018-09-27T07:14:58.172Z,8.40
2018-09-27T07:17:28.889Z,8.50
2018-09-27T07:19:59.549Z,8.60
2018-09-27T07:22:30.255Z,8.60
2018-09-27T07:25:00.992Z,8.70
2018-09-27T07:27:31.858Z,8.80
2018-09-27T07:30:02.573Z,8.90
2018-09-27T07:32:33.322Z,8.90
2018-09-27T07:35:04.547Z,9.00
2018-09-27T07:37:35.264Z,9.10
2018-09-27T07:40:06.105Z,9.20
2018-09-27T07:42:36.862Z,9.20
2018-09-27T07:45:07.780Z,9.40
2018-09-27T07:47:38.432Z,9.40
2018-09-27T07:50:09.229Z,9.50
2018-09-27T07:52:39.909Z,9.60
2018-09-27T07:55:10.613Z,9.70
2018-09-27T07:57:41.294Z,9.80
2018-09-27T08:00:11.993Z,9.90
2018-09-27T08:02:42.742Z,10.00
2018-09-27T08:05:13.576Z,10.10
2018-09-27T08:07:44.276Z,10.20
2018-09-27T08:10:15.325Z,10.20
2018-09-27T08:12:46.016Z,10.40
2018-09-27T08:15:16.731Z,10.50
2018-09-27T08:17:47.441Z,10.60
2018-09-27T08:20:18.180Z,10.80
2018-09-27T08:22:49.013Z,10.90
2018-09-27T08:25:19.691Z,11.00
2018-09-27T08:27:50.390Z,11.10
2018-09-27T08:30:21.070Z,11.20
2018-09-27T08:32:58.788Z,11.30
2018-09-27T08:35:29.488Z,11.40
2018-09-27T08:38:00.433Z,11.50
2018-09-27T08:40:31.092Z,11.60
2018-09-27T08:43:01.790Z,11.70
2018-09-27T08:45:32.741Z,11.80
2018-09-27T08:48:03.386Z,12.00
2018-09-27T08:50:34.203Z,12.20
2018-09-27T08:53:05.241Z,12.30
2018-09-27T08:55:36.247Z,12.50
2018-09-27T08:58:07.440Z,12.80
2018-09-27T09:00:38.123Z,13.00
2018-09-27T09:03:08.841Z,13.30
2018-09-27T09:05:39.853Z,13.40
2018-09-27T09:08:10.535Z,13.50
2018-09-27T09:10:41.295Z,13.60
2018-09-27T09:13:11.965Z,13.80
2018-09-27T09:15:42.696Z,14.00
2018-09-27T09:18:13.513Z,14.10
2018-09-27T09:20:44.381Z,14.30
2018-09-27T09:23:15.100Z,14.40
2018-09-27T09:25:45.801Z,14.50
2018-09-27T09:28:16.685Z,14.60
2018-09-27T09:30:47.359Z,14.80
2018-09-27T09:33:18.065Z,15.00
2018-09-27T09:35:48.813Z,15.10
2018-09-27T09:38:19.700Z,15.20
2018-09-27T09:40:50.369Z,15.40
2018-09-27T09:43:21.069Z,15.50
2018-09-27T09:45:52.129Z,15.60
2018-09-27T09:48:22.815Z,15.70
2018-09-27T09:50:53.484Z,15.80
2018-09-27T09:53:24.196Z,15.90
2018-09-27T09:55:54.869Z,15.90
2018-09-27T09:58:25.582Z,16.10
2018-09-27T10:00:56.276Z,16.10
2018-09-27T10:03:26.973Z,16.30
2018-09-27T10:05:57.676Z,16.40
2018-09-27T10:08:28.376Z,16.50
2018-09-27T10:10:59.349Z,16.60
2018-09-27T10:13:30.018Z,16.80
2018-09-27T10:16:00.760Z,16.90
2018-09-27T10:18:31.498Z,17.00
2018-09-27T10:21:02.143Z,17.00
2018-09-27T10:23:32.834Z,17.20
2018-09-27T10:26:03.537Z,17.20
2018-09-27T10:28:34.246Z,17.30
2018-09-27T10:31:04.898Z,17.30
2018-09-27T10:33:35.589Z,17.50
2018-09-27T10:36:06.969Z,17.60
2018-09-27T10:38:37.731Z,17.60
2018-09-27T10:41:08.391Z,17.70
2018-09-27T10:43:39.207Z,17.70
2018-09-27T10:46:10.121Z,17.80
2018-09-27T10:48:40.840Z,17.80
2018-09-27T10:51:11.632Z,17.90
2018-09-27T10:53:45.601Z,18.00
2018-09-27T10:56:16.290Z,18.10
2018-09-27T10:58:46.989Z,18.10
2018-09-27T11:01:17.643Z,18.20
2018-09-27T11:03:48.577Z,18.30
2018-09-27T11:06:19.289Z,18.50
2018-09-27T11:08:50.004Z,18.70
2018-09-27T11:11:20.715Z,18.80
2018-09-27T11:13:51.619Z,18.90
2018-09-27T11:16:22.303Z,19.00
2018-09-27T11:18:53.007Z,19.10
2018-09-27T11:21:23.706Z,19.20
2018-09-27T11:23:54.116Z,19.30
2018-09-27T11:26:24.824Z,19.50
2018-09-27T11:29:00.894Z,19.50
2018-09-27T11:31:37.197Z,19.70
2018-09-27T11:34:07.733Z,19.90
2018-09-27T11:36:38.464Z,19.90
2018-09-27T11:39:09.921Z,20.10
2018-09-27T11:41:40.481Z,20.10
2018-09-27T11:44:18.033Z,20.20
2018-09-27T11:46:48.453Z,20.20
2018-09-27T11:49:18.862Z,20.20
2018-09-27T11:51:49.472Z,20.30
2018-09-27T11:54:19.859Z,20.40
2018-09-27T11:56:50.256Z,20.50
2018-09-27T11:59:21.004Z,20.60
2018-09-27T12:01:51.450Z,20.60
2018-09-27T12:04:21.833Z,20.70
2018-09-27T12:06:52.233Z,20.70
2018-09-27T12:09:22.650Z,20.80
2018-09-27T12:11:53.067Z,20.90
2018-09-27T12:14:24.349Z,21.00
2018-09-27T12:16:54.890Z,21.20
2018-09-27T12:19:25.647Z,21.30
2018-09-27T12:21:56.224Z,21.40
2018-09-27T12:24:26.656Z,21.50
2018-09-27T12:26:57.128Z,21.50
2018-09-27T12:29:27.537Z,21.50
2018-09-27T12:31:57.949Z,21.60
2018-09-27T12:34:28.373Z,21.70
2018-09-27T12:36:58.787Z,21.80
2018-09-27T12:39:29.201Z,21.80
2018-09-27T12:41:59.920Z,21.80
2018-09-27T12:44:30.380Z,21.80
2018-09-27T12:47:00.820Z,21.80
2018-09-27T12:49:31.368Z,21.80
2018-09-27T12:52:01.934Z,21.80
2018-09-27T12:54:32.393Z,21.90
2018-09-27T12:57:02.842Z,22.00
2018-09-27T12:59:33.452Z,22.10
2018-09-27T13:02:04.471Z,22.00
2018-09-27T13:04:34.816Z,22.10
2018-09-27T13:07:05.225Z,22.00
2018-09-27T13:09:35.978Z,22.10
2018-09-27T13:12:06.421Z,22.10
2018-09-27T13:14:37.046Z,22.10
2018-09-27T13:17:07.815Z,22.10
2018-09-27T13:19:38.550Z,22.10
2018-09-27T13:22:08.987Z,22.10
2018-09-27T13:24:39.611Z,22.00
2018-09-27T13:27:10.204Z,22.10
2018-09-27T13:29:40.809Z,22.10
2018-09-27T13:32:11.240Z,22.10
2018-09-27T13:34:41.828Z,22.10
2018-09-27T13:37:12.271Z,22.20
2018-09-27T13:39:42.861Z,22.30
2018-09-27T13:42:13.273Z,22.30
2018-09-27T13:44:43.696Z,22.30
2018-09-27T13:47:14.122Z,22.40
2018-09-27T13:49:44.504Z,22.40
2018-09-27T13:52:15.112Z,22.40
2018-09-27T13:54:45.788Z,22.50
2018-09-27T13:57:16.228Z,22.50
2018-09-27T13:59:46.797Z,22.60
2018-09-27T14:02:17.198Z,22.50
2018-09-27T14:04:47.593Z,22.50
2018-09-27T14:07:18.006Z,22.50
2018-09-27T14:09:48.425Z,22.50
2018-09-27T14:12:18.826Z,22.40
2018-09-27T14:14:49.219Z,22.40
2018-09-27T14:17:19.632Z,22.40
2018-09-27T14:19:50.032Z,22.40
2018-09-27T14:22:20.477Z,22.40
2018-09-27T14:24:50.921Z,22.50
2018-09-27T14:27:21.529Z,22.50
2018-09-27T14:29:51.899Z,22.50
2018-09-27T14:32:22.606Z,22.40
2018-09-27T14:34:53.174Z,22.40
2018-09-27T14:37:23.760Z,22.40
2018-09-27T14:39:54.140Z,22.40
2018-09-27T14:42:24.561Z,22.40
2018-09-27T14:44:54.935Z,22.40
2018-09-27T14:47:25.391Z,22.40
2018-09-27T14:49:55.953Z,22.40
2018-09-27T14:52:26.406Z,22.40
2018-09-27T14:54:56.994Z,22.40
2018-09-27T14:57:27.676Z,22.50
2018-09-27T14:59:58.063Z,22.50
2018-09-27T15:02:28.519Z,22.50
2018-09-27T15:04:59.069Z,22.40
2018-09-27T15:07:29.509Z,22.40
2018-09-27T15:09:59.959Z,22.40
2018-09-27T15:12:30.919Z,22.30
2018-09-27T15:15:01.509Z,22.30
2018-09-27T15:17:31.946Z,22.30
2018-09-27T15:20:02.365Z,22.30
2018-09-27T15:22:32.927Z,22.30
2018-09-27T15:25:03.552Z,22.30
2018-09-27T15:27:33.915Z,22.30
2018-09-27T15:30:05.151Z,22.30
2018-09-27T15:32:35.535Z,22.30
2018-09-27T15:35:05.964Z,22.20
2018-09-27T15:37:36.368Z,22.20
2018-09-27T15:40:06.953Z,22.20
2018-09-27T15:42:37.533Z,22.20
2018-09-27T15:45:07.973Z,22.10
2018-09-27T15:47:38.348Z,22.10
2018-09-27T15:50:08.792Z,22.10
2018-09-27T15:52:39.197Z,22.10
2018-09-27T15:55:09.588Z,21.90
2018-09-27T15:57:40.069Z,21.80
2018-09-27T16:00:11.192Z,21.80
2018-09-27T16:02:41.616Z,21.70
2018-09-27T16:05:12.173Z,21.70
2018-09-27T16:07:42.544Z,21.60
2018-09-27T16:10:12.994Z,21.50
2018-09-27T16:12:43.400Z,21.40
2018-09-27T16:15:13.826Z,21.30
2018-09-27T16:17:44.265Z,21.20
2018-09-27T16:20:14.849Z,21.10
2018-09-27T16:22:45.268Z,20.90
2018-09-27T16:25:15.637Z,20.80
2018-09-27T16:27:46.036Z,20.70
2018-09-27T16:30:16.404Z,20.60
2018-09-27T16:32:47.000Z,20.50
2018-09-27T16:35:17.393Z,20.40
2018-09-27T16:37:47.865Z,20.30
2018-09-27T16:40:18.285Z,20.20
2018-09-27T16:42:48.876Z,20.10
2018-09-27T16:45:19.265Z,20.00
2018-09-27T16:47:49.676Z,19.90
2018-09-27T16:50:20.084Z,19.80
2018-09-27T16:52:50.716Z,19.70
2018-09-27T16:55:21.113Z,19.60
2018-09-27T16:57:51.523Z,19.60
2018-09-27T17:00:21.898Z,19.50
2018-09-27T17:02:52.295Z,19.40
2018-09-27T17:05:22.702Z,19.30
2018-09-27T17:07:53.112Z,19.30
2018-09-27T17:10:23.497Z,19.20
2018-09-27T17:12:54.099Z,19.20
2018-09-27T17:15:24.681Z,19.10
2018-09-27T17:17:54.505Z,19.10
2018-09-27T17:20:24.911Z,19.00
2018-09-27T17:22:55.340Z,19.00
2018-09-27T17:25:25.765Z,19.00
2018-09-27T17:27:56.215Z,18.90
2018-09-27T17:30:26.576Z,18.80
2018-09-27T17:32:57.041Z,18.80
2018-09-27T17:35:27.579Z,18.70
2018-09-27T17:37:58.242Z,18.70
2018-09-27T17:40:28.674Z,18.60
2018-09-27T17:42:59.573Z,18.60
2018-09-27T17:45:30.328Z,18.50
2018-09-27T17:48:00.742Z,18.40
2018-09-27T17:50:31.422Z,18.30
2018-09-27T17:53:01.881Z,18.20
2018-09-27T17:55:32.501Z,18.20
2018-09-27T17:58:03.400Z,18.10
2018-09-27T18:00:34.089Z,18.00
2018-09-27T18:03:04.475Z,17.90
2018-09-27T18:05:35.197Z,17.80
2018-09-27T18:08:06.169Z,17.80
2018-09-27T18:10:36.936Z,17.70
2018-09-27T18:13:07.763Z,17.60
2018-09-27T18:15:38.472Z,17.50
2018-09-27T18:18:08.849Z,17.40
2018-09-27T18:20:39.548Z,17.30
2018-09-27T18:23:10.229Z,17.20
2018-09-27T18:25:40.974Z,17.10
2018-09-27T18:28:11.932Z,17.00
2018-09-27T18:30:42.734Z,16.90
2018-09-27T18:33:13.397Z,16.80
2018-09-27T18:35:44.104Z,16.70
2018-09-27T18:38:14.891Z,16.60
2018-09-27T18:40:46.053Z,16.50
2018-09-27T18:43:16.861Z,16.40
2018-09-27T18:45:47.676Z,16.30
2018-09-27T18:48:18.355Z,16.30
2018-09-27T18:50:49.049Z,16.20
2018-09-27T18:53:19.715Z,16.10
2018-09-27T18:55:50.412Z,16.10
2018-09-27T18:58:21.080Z,16.10
2018-09-27T19:00:51.784Z,16.10
2018-09-27T19:03:22.472Z,16.00
2018-09-27T19:05:53.184Z,16.00
2018-09-27T19:08:23.846Z,16.00
2018-09-27T19:10:54.576Z,15.90
2018-09-27T19:13:25.439Z,15.90
2018-09-27T19:15:56.128Z,15.90
2018-09-27T19:18:26.788Z,15.80
2018-09-27T19:20:57.523Z,15.80
2018-09-27T19:23:28.216Z,15.70
2018-09-27T19:25:58.908Z,15.70
2018-09-27T19:28:29.813Z,15.60
2018-09-27T19:31:00.527Z,15.60
2018-09-27T19:33:31.201Z,15.60
2018-09-27T19:36:02.095Z,15.50
2018-09-27T19:38:32.816Z,15.50
2018-09-27T19:41:03.549Z,15.40
2018-09-27T19:43:34.269Z,15.30
2018-09-27T19:46:05.333Z,15.30
2018-09-27T19:48:36.134Z,15.20
2018-09-27T19:51:06.823Z,15.10
2018-09-27T19:53:37.613Z,15.10
2018-09-27T19:56:08.611Z,15.00
2018-09-27T19:58:39.528Z,15.00
2018-09-27T20:01:10.312Z,14.90
2018-09-27T20:03:41.004Z,14.90
2018-09-27T20:06:11.729Z,14.90
2018-09-27T20:08:42.442Z,14.80
2018-09-27T20:11:13.202Z,14.80
2018-09-27T20:13:44.056Z,14.70
2018-09-27T20:16:14.745Z,14.70
2018-09-27T20:18:45.616Z,14.70
2018-09-27T20:21:16.301Z,14.60
2018-09-27T20:23:46.988Z,14.60
2018-09-27T20:26:17.659Z,14.60
2018-09-27T20:28:49.998Z,14.50
2018-09-27T20:31:20.729Z,14.50
2018-09-27T20:33:51.449Z,14.50
2018-09-27T20:36:22.169Z,14.40
2018-09-27T20:38:52.829Z,14.30
2018-09-27T20:41:23.525Z,14.30
2018-09-27T20:43:54.222Z,14.20
2018-09-27T20:46:24.904Z,14.10
2018-09-27T20:48:55.597Z,14.10
2018-09-27T20:51:26.283Z,14.10
2018-09-27T20:53:56.970Z,14.00
2018-09-27T20:56:27.840Z,14.00
2018-09-27T20:58:58.531Z,13.90
2018-09-27T21:01:29.168Z,13.90
2018-09-27T21:03:59.854Z,13.80
2018-09-27T21:06:30.510Z,13.80
2018-09-27T21:09:01.168Z,13.70
2018-09-27T21:11:31.936Z,13.60
2018-09-27T21:14:02.787Z,13.60
2018-09-27T21:16:40.672Z,13.50
2018-09-27T21:19:11.494Z,13.50
2018-09-27T21:21:42.349Z,13.50
2018-09-27T21:24:13.220Z,13.40
2018-09-27T21:26:43.961Z,13.30
2018-09-27T21:29:14.699Z,13.30
2018-09-27T21:31:45.455Z,13.20
2018-09-27T21:34:16.400Z,13.20
2018-09-27T21:36:47.177Z,13.20
2018-09-27T21:39:17.915Z,13.10
2018-09-27T21:41:49.718Z,13.10
2018-09-27T21:44:20.372Z,13.10
2018-09-27T21:46:51.005Z,13.00
2018-09-27T21:49:21.682Z,13.00
2018-09-27T21:51:52.344Z,13.00
2018-09-27T21:54:23.011Z,13.00
2018-09-27T21:56:53.666Z,13.00
2018-09-27T21:59:24.304Z,13.00
2018-09-27T22:01:54.965Z,12.90
2018-09-27T22:04:25.756Z,13.00
2018-09-27T22:06:56.421Z,12.90
2018-09-27T22:09:27.274Z,12.90
2018-09-27T22:11:57.963Z,12.90
2018-09-27T22:14:28.644Z,12.90
2018-09-27T22:16:59.309Z,12.90
2018-09-27T22:19:29.945Z,12.80
2018-09-27T22:22:00.618Z,12.90
2018-09-27T22:24:31.243Z,12.90
2018-09-27T22:27:01.995Z,12.90
2018-09-27T22:29:32.648Z,12.90
2018-09-27T22:32:03.300Z,13.00
2018-09-27T22:34:33.950Z,13.00
2018-09-27T22:37:04.707Z,13.00
2018-09-27T22:39:35.336Z,13.10
2018-09-27T22:42:06.464Z,13.20
2018-09-27T22:44:37.101Z,13.20
2018-09-27T22:47:07.788Z,13.20
2018-09-27T22:49:38.456Z,13.20
2018-09-27T22:52:09.172Z,13.20
2018-09-27T22:54:39.829Z,13.20
2018-09-27T22:57:10.484Z,13.20
2018-09-27T22:59:41.594Z,13.20
2018-09-27T23:02:12.316Z,13.10
2018-09-27T23:04:42.988Z,13.10
2018-09-27T23:07:13.615Z,13.10
2018-09-27T23:09:44.293Z,13.00
2018-09-27T23:12:14.929Z,12.90
2018-09-27T23:14:45.640Z,12.90
2018-09-27T23:17:16.281Z,12.90
2018-09-27T23:19:46.944Z,12.90
2018-09-27T23:22:17.569Z,12.80
2018-09-27T23:24:48.243Z,12.80
2018-09-27T23:27:18.896Z,12.80
2018-09-27T23:29:49.717Z,12.80
2018-09-27T23:32:20.385Z,12.80
2018-09-27T23:34:51.012Z,12.80
2018-09-27T23:37:21.687Z,12.70
2018-09-27T23:39:52.670Z,12.60
2018-09-27T23:42:23.364Z,12.60
2018-09-27T23:44:54.028Z,12.50
2018-09-27T23:47:24.667Z,12.50
2018-09-27T23:49:55.270Z,12.50
2018-09-27T23:52:25.901Z,12.30
2018-09-27T23:54:56.510Z,12.30
2018-09-27T23:57:27.129Z,12.30
2018-09-27T23:59:57.754Z,12.20
